Time;durP1;ratioP1;P1;durP2;ratioP2;P2;SDS_P1;SDS_P2;PMS_P1;PMS_P2;Temp;Humidity;BMP_temperature;BMP_pressure;BME280_temperature;BME280_humidity;BME280_pressure;Samples;Min_cycle;Max_cycle;Signal;HPM_P1;HPM_P2
2022/03/26 00:00:34;;;;;;;40.67;22.97;;;6.70;97.10;;;;;;5059720;28;20196;-85
2022/03/26 00:03:13;;;;;;;40.03;24.27;;;6.60;97.10;;;;;;5061450;28;20197;-85
2022/03/26 00:05:41;;;;;;;39.90;23.93;;;6.60;97.20;;;;;;5077131;28;20203;-85
2022/03/26 00:08:07;;;;;;;42.87;23.63;;;6.60;97.60;;;;;;5060593;28;20189;-85
2022/03/26 00:10:33;;;;;;;39.90;24.27;;;6.50;97.90;;;;;;5094049;28;20175;-85
2022/03/26 00:12:59;;;;;;;37.83;23.83;;;6.60;97.90;;;;;;5094643;28;20232;-85
2022/03/26 00:15:26;;;;;;;39.07;23.97;;;6.60;97.70;;;;;;5094339;28;20250;-85
2022/03/26 00:17:52;;;;;;;35.97;22.27;;;6.70;97.60;;;;;;5094663;28;20181;-85
2022/03/26 00:20:18;;;;;;;41.70;24.23;;;6.70;97.90;;;;;;5094714;28;20181;-85
2022/03/26 00:22:44;;;;;;;35.90;22.70;;;6.70;97.80;;;;;;5094498;28;20199;-85
2022/03/26 00:25:13;;;;;;;39.30;22.90;;;6.70;98.10;;;;;;5094198;28;20213;-85
2022/03/26 00:27:39;;;;;;;37.93;22.67;;;6.70;98.40;;;;;;5110559;28;20182;-85
2022/03/26 00:30:06;;;;;;;35.03;22.97;;;6.70;98.50;;;;;;5092855;28;20173;-85
2022/03/26 00:32:32;;;;;;;35.67;22.77;;;6.60;98.60;;;;;;5110110;28;20198;-85
2022/03/26 00:34:58;;;;;;;37.20;22.53;;;6.50;98.70;;;;;;5092543;28;20274;-85
2022/03/26 00:37:24;;;;;;;40.70;24.30;;;6.50;98.90;;;;;;5092537;28;20293;-85
2022/03/26 00:39:50;;;;;;;37.53;23.50;;;6.40;98.90;;;;;;5075448;28;20188;-85
2022/03/26 00:42:17;;;;;;;38.00;24.37;;;6.40;98.80;;;;;;5076151;28;20214;-85
2022/03/26 00:44:42;;;;;;;39.33;24.47;;;6.30;98.60;;;;;;5075792;28;20205;-85
2022/03/26 00:47:09;;;;;;;36.83;22.37;;;6.20;98.40;;;;;;5075997;28;20202;-85
2022/03/26 00:49:35;;;;;;;35.67;22.87;;;6.10;98.70;;;;;;5075693;28;20183;-85
2022/03/26 00:52:03;;;;;;;35.30;23.47;;;6.00;98.80;;;;;;5075329;28;20240;-85
2022/03/26 00:54:30;;;;;;;34.80;22.37;;;6.00;98.90;;;;;;5075831;28;20188;-85
2022/03/26 00:56:57;;;;;;;36.50;23.20;;;5.90;98.90;;;;;;5075648;28;20196;-85
2022/03/26 00:59:23;;;;;;;34.87;22.97;;;5.90;99.40;;;;;;5075523;28;20183;-85
2022/03/26 01:01:49;;;;;;;38.33;22.83;;;5.90;99.20;;;;;;5074638;28;20210;-85
2022/03/26 01:04:15;;;;;;;38.37;22.90;;;5.80;99.00;;;;;;5075585;28;20231;-85
2022/03/26 01:06:41;;;;;;;39.50;24.60;;;5.70;98.40;;;;;;5075274;28;20220;-85
2022/03/26 01:09:07;;;;;;;38.67;23.57;;;5.70;98.60;;;;;;5075850;28;20205;-85
2022/03/26 01:11:34;;;;;;;38.87;22.97;;;5.70;98.90;;;;;;5075673;28;20188;-85
2022/03/26 01:14:00;;;;;;;36.03;22.93;;;5.70;98.90;;;;;;5075037;28;20227;-85
2022/03/26 01:16:27;;;;;;;34.50;22.60;;;5.70;98.90;;;;;;5059043;28;20184;-85
2022/03/26 01:18:56;;;;;;;33.83;21.77;;;5.70;98.90;;;;;;5075074;28;20181;-85
2022/03/26 01:21:22;;;;;;;37.50;23.77;;;5.70;99.30;;;;;;5058397;28;20202;-85
2022/03/26 01:23:50;;;;;;;37.30;22.90;;;5.60;99.90;;;;;;5058496;28;20235;-85
2022/03/26 01:26:17;;;;;;;37.17;22.77;;;5.60;99.90;;;;;;5058332;28;20177;-85
2022/03/26 01:28:44;;;;;;;37.00;22.77;;;5.60;99.90;;;;;;5058558;28;20183;-85
2022/03/26 01:31:10;;;;;;;38.20;23.67;;;5.50;99.90;;;;;;5058272;28;20185;-85
2022/03/26 01:33:36;;;;;;;39.53;23.13;;;5.50;99.90;;;;;;5058465;28;20242;-85
2022/03/26 01:36:04;;;;;;;37.50;22.10;;;5.50;99.90;;;;;;5057830;28;20271;-85
2022/03/26 01:38:30;;;;;;;36.73;22.73;;;5.60;99.90;;;;;;5074842;28;20197;-85
2022/03/26 01:40:56;;;;;;;38.40;22.50;;;5.50;99.90;;;;;;5074693;28;20181;-85
2022/03/26 01:43:22;;;;;;;38.97;24.07;;;5.40;99.90;;;;;;5074864;28;20210;-84
2022/03/26 01:45:48;;;;;;;40.97;23.33;;;5.40;99.90;;;;;;5074776;28;20181;-85
2022/03/26 01:48:14;;;;;;;34.87;22.70;;;5.30;99.90;;;;;;5074292;28;20212;-85
2022/03/26 01:50:40;;;;;;;36.10;22.90;;;5.20;99.90;;;;;;5074514;28;20264;-85
2022/03/26 01:53:06;;;;;;;36.27;22.93;;;5.10;99.90;;;;;;5074685;28;20224;-85
2022/03/26 01:55:33;;;;;;;36.93;22.30;;;5.10;99.90;;;;;;5074359;28;20295;-85
2022/03/26 01:57:59;;;;;;;37.13;22.60;;;5.10;99.90;;;;;;5074391;28;20179;-85
2022/03/26 02:00:25;;;;;;;38.67;22.43;;;5.10;99.90;;;;;;5074713;28;20593;-85
2022/03/26 02:02:51;;;;;;;37.97;22.63;;;5.10;99.90;;;;;;5074888;28;20734;-84
2022/03/26 02:05:19;;;;;;;41.43;22.17;;;5.10;99.90;;;;;;5074576;28;20212;-85
2022/03/26 02:07:46;;;;;;;39.00;23.33;;;5.10;99.90;;;;;;5073974;28;20184;-85
2022/03/26 02:10:15;;;;;;;38.70;23.67;;;5.00;99.90;;;;;;5091172;28;20190;-85
2022/03/26 02:12:41;;;;;;;41.10;22.57;;;5.00;99.90;;;;;;5090731;28;20201;-85
2022/03/26 02:15:08;;;;;;;36.47;22.57;;;4.90;99.90;;;;;;5090825;28;20181;-85
2022/03/26 02:17:48;;;;;;;;;;;;;;;;;;;;;
2022/03/26 02:23:11;;;;;;;36.83;22.57;;;4.80;99.90;;;;;;5063728;28;20287;-85
2022/03/26 02:25:36;;;;;;;37.23;22.70;;;4.80;99.90;;;;;;5090928;28;20322;-85
2022/03/26 02:28:02;;;;;;;35.47;22.33;;;4.80;99.90;;;;;;5073812;28;20173;-85
2022/03/26 02:30:30;;;;;;;37.57;22.47;;;4.90;99.90;;;;;;5090823;28;20184;-85
2022/03/26 02:32:56;;;;;;;36.77;22.67;;;4.80;99.90;;;;;;5090598;28;20229;-85
2022/03/26 02:35:22;;;;;;;36.57;22.10;;;4.80;99.90;;;;;;5090764;28;20184;-85
2022/03/26 02:37:48;;;;;;;37.40;22.70;;;4.80;99.90;;;;;;5091257;28;20199;-87
2022/03/26 02:40:14;;;;;;;36.33;22.47;;;4.70;99.90;;;;;;5108056;28;20534;-85
2022/03/26 02:42:40;;;;;;;36.43;22.27;;;4.70;99.90;;;;;;5090415;28;20204;-85
2022/03/26 02:45:06;;;;;;;34.63;22.30;;;4.60;99.90;;;;;;5090597;28;20224;-85
2022/03/26 02:47:32;;;;;;;38.90;22.90;;;4.50;99.90;;;;;;5090462;28;20656;-85
2022/03/26 02:49:58;;;;;;;37.03;23.03;;;4.40;99.90;;;;;;5090496;28;20180;-85
2022/03/26 02:52:24;;;;;;;40.57;23.17;;;4.30;99.90;;;;;;5107533;28;20773;-85
2022/03/26 02:54:51;;;;;;;37.17;22.27;;;4.20;99.90;;;;;;5107484;28;20652;-85
2022/03/26 02:57:17;;;;;;;35.63;21.57;;;4.10;99.90;;;;;;5090742;28;20262;-85
2022/03/26 02:59:43;;;;;;;37.63;22.63;;;4.10;99.90;;;;;;5090260;28;20203;-85
2022/03/26 03:02:09;;;;;;;37.27;23.83;;;4.10;99.90;;;;;;5090813;28;20291;-85
2022/03/26 03:04:36;;;;;;;35.13;20.90;;;4.10;99.90;;;;;;5090170;28;20239;-85
2022/03/26 03:07:02;;;;;;;40.40;21.67;;;4.10;99.90;;;;;;5107400;28;20189;-85
2022/03/26 03:09:28;;;;;;;38.67;22.43;;;4.10;99.90;;;;;;5090307;28;20180;-85
2022/03/26 03:11:54;;;;;;;39.53;22.67;;;4.10;99.90;;;;;;5090292;28;20198;-85
2022/03/26 03:14:21;;;;;;;38.57;21.73;;;4.10;99.90;;;;;;5107223;28;20172;-85
2022/03/26 03:16:46;;;;;;;39.07;22.63;;;4.10;99.90;;;;;;5090256;28;20180;-85
2022/03/26 03:19:12;;;;;;;39.00;23.30;;;4.00;99.90;;;;;;5090163;28;20184;-85
2022/03/26 03:21:38;;;;;;;38.57;22.27;;;4.00;99.90;;;;;;5090179;28;20294;-85
2022/03/26 03:24:05;;;;;;;36.33;22.67;;;3.90;99.90;;;;;;5089350;28;20208;-85
2022/03/26 03:26:31;;;;;;;36.47;22.17;;;3.80;99.90;;;;;;5089918;28;20710;-84
2022/03/26 03:28:58;;;;;;;37.67;21.67;;;3.80;99.90;;;;;;5089536;28;20230;-85
2022/03/26 03:31:24;;;;;;;38.87;23.27;;;3.70;99.90;;;;;;5089565;28;20252;-84
2022/03/26 03:33:50;;;;;;;38.07;22.73;;;3.80;99.90;;;;;;5107144;28;20223;-84
2022/03/26 03:36:17;;;;;;;38.07;22.70;;;3.80;99.90;;;;;;5089746;28;20200;-84
2022/03/26 03:38:43;;;;;;;37.43;22.13;;;3.80;99.90;;;;;;5090057;28;20196;-85
2022/03/26 03:41:10;;;;;;;36.97;24.03;;;3.80;99.90;;;;;;5089792;28;20189;-84
2022/03/26 03:43:36;;;;;;;38.53;22.10;;;3.70;99.90;;;;;;5090734;28;20212;-84
2022/03/26 03:46:02;;;;;;;40.07;23.07;;;3.50;99.90;;;;;;5107815;28;20244;-85
2022/03/26 03:48:28;;;;;;;36.10;21.83;;;3.50;99.90;;;;;;5108315;28;20173;-84
2022/03/26 03:50:54;;;;;;;38.07;22.67;;;3.40;99.90;;;;;;5090857;28;20183;-84
2022/03/26 03:53:20;;;;;;;35.50;22.53;;;3.40;99.90;;;;;;5090757;28;20286;-84
2022/03/26 03:55:45;;;;;;;38.60;22.53;;;3.30;99.90;;;;;;5090444;28;20175;-84
2022/03/26 03:58:11;;;;;;;40.33;22.50;;;3.20;99.90;;;;;;5089894;28;20176;-84
2022/03/26 04:00:37;;;;;;;35.97;20.57;;;3.20;99.90;;;;;;5106399;28;20207;-84
2022/03/26 04:03:03;;;;;;;38.33;21.77;;;3.10;99.90;;;;;;5089675;28;20203;-84
2022/03/26 04:05:29;;;;;;;36.27;22.03;;;3.10;99.90;;;;;;5089570;28;20210;-84
2022/03/26 04:07:55;;;;;;;38.93;21.90;;;3.10;99.90;;;;;;5089435;28;20204;-84
2022/03/26 04:10:21;;;;;;;38.90;22.90;;;3.20;99.90;;;;;;5089615;28;20187;-84
2022/03/26 04:12:47;;;;;;;35.93;21.80;;;3.20;99.90;;;;;;5089160;28;20231;-84
2022/03/26 04:15:14;;;;;;;39.10;22.17;;;3.20;99.90;;;;;;5089652;28;20276;-84
2022/03/26 04:17:40;;;;;;;37.00;22.53;;;3.20;99.90;;;;;;5106482;28;20176;-84
2022/03/26 04:20:10;;;;;;;35.87;21.60;;;3.10;99.90;;;;;;5089440;28;20178;-84
2022/03/26 04:22:39;;;;;;;37.47;22.43;;;3.10;99.90;;;;;;5089166;28;20211;-84
2022/03/26 04:25:06;;;;;;;39.50;23.07;;;3.10;99.90;;;;;;5089102;28;20214;-84
2022/03/26 04:27:32;;;;;;;39.10;22.40;;;3.10;99.90;;;;;;5089741;28;20177;-84
2022/03/26 04:29:59;;;;;;;39.70;22.57;;;3.10;99.90;;;;;;5089103;28;20251;-84
2022/03/26 04:32:25;;;;;;;38.17;22.13;;;3.10;99.90;;;;;;5089831;28;20252;-84
2022/03/26 04:34:51;;;;;;;38.20;23.30;;;3.20;99.90;;;;;;5089540;28;20240;-84
2022/03/26 04:37:17;;;;;;;39.20;23.00;;;3.20;99.90;;;;;;5090951;28;20195;-84
2022/03/26 04:39:43;;;;;;;39.03;23.73;;;3.20;99.90;;;;;;5076033;28;20184;-84
2022/03/26 04:42:09;;;;;;;37.47;21.67;;;3.10;99.90;;;;;;5075761;28;20199;-84
2022/03/26 04:44:35;;;;;;;42.33;22.50;;;3.20;99.90;;;;;;5076131;28;20253;-84
2022/03/26 04:47:01;;;;;;;38.07;21.47;;;3.10;99.90;;;;;;5076260;28;20175;-84
2022/03/26 04:49:27;;;;;;;37.00;20.47;;;3.10;99.90;;;;;;5076234;28;20184;-84
2022/03/26 04:51:53;;;;;;;38.57;22.37;;;3.10;99.90;;;;;;5078103;28;20203;-84
2022/03/26 04:54:19;;;;;;;36.30;20.90;;;3.10;99.90;;;;;;5077480;28;20180;-84
2022/03/26 04:56:45;;;;;;;38.03;22.53;;;3.00;99.90;;;;;;5061532;28;20185;-84
2022/03/26 04:59:11;;;;;;;39.20;22.73;;;3.00;99.90;;;;;;5079182;28;20216;-84
2022/03/26 05:01:37;;;;;;;38.10;22.37;;;3.00;99.90;;;;;;5078172;28;20293;-84
2022/03/26 05:04:03;;;;;;;35.67;21.67;;;2.80;99.90;;;;;;5078519;28;20292;-84
2022/03/26 05:06:29;;;;;;;36.87;21.63;;;2.80;99.90;;;;;;5077088;28;20209;-84
2022/03/26 05:08:55;;;;;;;38.07;21.83;;;2.80;99.90;;;;;;5075404;28;20198;-84
2022/03/26 05:11:21;;;;;;;39.73;21.83;;;2.80;99.90;;;;;;5058853;28;20204;-84
2022/03/26 05:13:47;;;;;;;39.60;23.03;;;2.80;99.90;;;;;;5058464;28;20186;-84
2022/03/26 05:16:13;;;;;;;43.17;24.13;;;2.80;99.90;;;;;;5058348;28;20181;-84
2022/03/26 05:18:39;;;;;;;39.23;23.23;;;2.80;99.90;;;;;;5058493;28;20183;-84
2022/03/26 05:21:07;;;;;;;39.03;22.30;;;2.70;99.90;;;;;;5074872;28;20182;-84
2022/03/26 05:23:34;;;;;;;40.93;23.10;;;2.80;99.90;;;;;;5057950;28;20201;-84
2022/03/26 05:26:00;;;;;;;42.33;24.83;;;2.80;99.90;;;;;;5058368;28;20182;-84
2022/03/26 05:28:26;;;;;;;38.50;22.93;;;2.80;99.90;;;;;;5058811;28;20184;-84
2022/03/26 05:30:52;;;;;;;40.07;22.83;;;2.80;99.90;;;;;;5077873;28;20183;-84
2022/03/26 05:33:18;;;;;;;37.80;22.57;;;2.70;99.90;;;;;;5071027;28;20215;-84
2022/03/26 05:35:44;;;;;;;38.27;21.93;;;2.70;99.90;;;;;;5059245;28;20203;-84
2022/03/26 05:38:10;;;;;;;43.33;22.50;;;2.60;99.90;;;;;;5058456;28;20182;-84
2022/03/26 05:40:36;;;;;;;36.93;22.93;;;2.60;99.90;;;;;;5091488;28;20181;-84
2022/03/26 05:43:03;;;;;;;39.23;22.90;;;2.60;99.90;;;;;;5108063;28;20314;-84
2022/03/26 05:45:29;;;;;;;36.00;21.40;;;2.50;99.90;;;;;;5073021;28;20221;-84
2022/03/26 05:48:02;;;;;;;41.53;23.77;;;2.40;99.90;;;;;;5074221;28;20178;-84
2022/03/26 05:50:29;;;;;;;40.90;24.27;;;2.40;99.90;;;;;;5076273;28;20194;-84
2022/03/26 05:52:56;;;;;;;35.93;22.50;;;2.40;99.90;;;;;;5075168;28;20192;-84
2022/03/26 05:55:23;;;;;;;41.67;24.60;;;2.40;99.90;;;;;;5076739;28;20191;-84
2022/03/26 05:57:49;;;;;;;39.37;23.40;;;2.50;99.90;;;;;;5075911;28;20180;-85
2022/03/26 06:00:16;;;;;;;43.40;23.60;;;2.50;99.90;;;;;;5059116;28;20195;-84
2022/03/26 06:02:44;;;;;;;39.87;24.00;;;2.60;99.90;;;;;;5076995;28;20317;-85
2022/03/26 06:05:11;;;;;;;39.93;24.07;;;2.70;99.90;;;;;;5080238;28;20231;-85
2022/03/26 06:07:38;;;;;;;42.40;24.17;;;2.80;99.90;;;;;;5073978;28;20191;-86
2022/03/26 06:10:04;;;;;;;44.70;25.77;;;2.80;99.90;;;;;;5091349;28;20212;-85
2022/03/26 06:12:30;;;;;;;40.30;23.67;;;2.90;99.90;;;;;;5092004;28;20199;-85
2022/03/26 06:14:56;;;;;;;38.73;23.10;;;3.00;99.90;;;;;;5091634;28;20180;-85
2022/03/26 06:17:22;;;;;;;41.40;24.03;;;3.10;99.90;;;;;;5091858;28;20535;-85
2022/03/26 06:19:48;;;;;;;39.03;23.40;;;3.20;99.90;;;;;;5091632;28;20172;-85
2022/03/26 06:22:14;;;;;;;41.40;23.47;;;3.30;99.90;;;;;;5074977;28;20198;-85
2022/03/26 06:24:40;;;;;;;37.90;23.27;;;3.30;99.90;;;;;;5091719;28;20215;-85
2022/03/26 06:27:06;;;;;;;40.97;23.47;;;3.40;99.90;;;;;;5091438;28;20222;-85
2022/03/26 06:29:33;;;;;;;49.30;25.93;;;3.40;99.90;;;;;;5073866;28;20180;-87
2022/03/26 06:32:01;;;;;;;45.47;23.73;;;3.50;99.90;;;;;;5090461;28;20254;-86
2022/03/26 06:34:51;;;;;;;45.37;25.07;;;3.60;99.90;;;;;;5094038;28;20191;-87
2022/03/26 06:37:16;;;;;;;41.67;23.87;;;3.70;99.90;;;;;;5055507;28;20294;-87
2022/03/26 06:40:39;;;;;;;39.83;23.43;;;3.80;99.90;;;;;;5093383;28;20275;-87
2022/03/26 06:43:06;;;;;;;38.70;23.03;;;3.90;99.90;;;;;;4992635;28;20242;-87
2022/03/26 06:45:33;;;;;;;40.87;23.57;;;4.00;99.90;;;;;;4976312;28;20690;-87
2022/03/26 06:47:59;;;;;;;36.57;23.47;;;4.00;99.90;;;;;;5041849;28;20640;-87
2022/03/26 06:50:26;;;;;;;42.43;23.70;;;4.10;99.90;;;;;;5089529;28;20188;-87
2022/03/26 06:52:53;;;;;;;40.47;23.93;;;4.10;99.90;;;;;;5090248;28;20204;-87
2022/03/26 06:55:19;;;;;;;38.93;23.77;;;4.20;99.90;;;;;;5056357;28;20229;-86
2022/03/26 06:57:45;;;;;;;41.97;24.57;;;4.30;99.90;;;;;;5072611;28;20190;-87
2022/03/26 07:00:13;;;;;;;40.40;23.63;;;4.40;99.90;;;;;;5072506;28;20172;-87
2022/03/26 07:02:39;;;;;;;39.70;24.37;;;4.50;99.90;;;;;;5073332;28;20201;-83
2022/03/26 07:05:06;;;;;;;39.47;23.27;;;4.70;99.90;;;;;;5059504;28;20203;-87
2022/03/26 07:07:32;;;;;;;38.20;23.23;;;4.80;99.90;;;;;;5075716;28;20181;-87
2022/03/26 07:09:58;;;;;;;39.37;24.27;;;4.80;99.90;;;;;;5091989;28;20183;-87
2022/03/26 07:12:26;;;;;;;40.53;23.43;;;4.90;99.90;;;;;;5090345;28;20200;-87
2022/03/26 07:14:53;;;;;;;38.87;23.73;;;5.10;99.90;;;;;;5089673;28;20181;-87
2022/03/26 07:17:22;;;;;;;41.00;22.77;;;5.30;99.90;;;;;;5072640;28;20184;-87
2022/03/26 07:19:51;;;;;;;42.00;25.17;;;5.40;99.90;;;;;;5055902;28;20239;-87
2022/03/26 07:22:20;;;;;;;38.03;23.50;;;5.50;99.90;;;;;;5063252;28;20210;-87
2022/03/26 07:24:46;;;;;;;40.23;24.77;;;5.50;99.90;;;;;;5072643;28;20327;-87
2022/03/26 07:27:12;;;;;;;37.10;23.30;;;5.60;99.90;;;;;;5072682;28;20216;-87
2022/03/26 07:29:39;;;;;;;39.73;24.67;;;5.80;99.90;;;;;;5055841;28;20219;-87
2022/03/26 07:32:09;;;;;;;43.63;24.53;;;5.90;99.90;;;;;;5072374;28;20188;-87
2022/03/26 07:34:35;;;;;;;38.20;23.47;;;6.10;99.90;;;;;;5073140;28;20207;-87
2022/03/26 07:37:03;;;;;;;41.53;23.97;;;6.30;99.90;;;;;;5081043;28;20188;-87
2022/03/26 07:39:30;;;;;;;42.77;25.40;;;6.40;99.90;;;;;;5073014;28;20188;-87
2022/03/26 07:41:55;;;;;;;39.57;24.60;;;6.60;99.90;;;;;;5072814;28;20204;-87
2022/03/26 07:44:22;;;;;;;39.90;26.00;;;6.70;99.90;;;;;;5072601;28;20209;-87
2022/03/26 07:46:48;;;;;;;39.80;24.37;;;6.80;99.90;;;;;;5073756;28;20188;-87
2022/03/26 07:49:14;;;;;;;38.87;24.80;;;6.80;99.90;;;;;;5074183;28;20260;-87
2022/03/26 07:51:41;;;;;;;37.87;23.87;;;7.00;99.90;;;;;;5073888;28;20197;-87
2022/03/26 07:54:08;;;;;;;40.87;24.97;;;7.10;99.90;;;;;;5056928;28;20197;-87
2022/03/26 07:56:34;;;;;;;40.80;25.73;;;7.20;99.90;;;;;;5072819;28;20632;-87
2022/03/26 07:58:59;;;;;;;40.07;24.83;;;7.30;99.90;;;;;;5072573;28;20276;-87
2022/03/26 08:01:25;;;;;;;40.70;24.47;;;7.40;99.90;;;;;;5072330;28;20196;-87
2022/03/26 08:03:54;;;;;;;39.77;24.43;;;7.60;99.90;;;;;;5072478;28;20210;-87
2022/03/26 08:06:24;;;;;;;37.63;25.03;;;7.70;99.90;;;;;;5072644;28;20593;-87
2022/03/26 08:08:50;;;;;;;36.50;23.87;;;7.90;99.90;;;;;;5072547;28;20221;-87
2022/03/26 08:11:17;;;;;;;37.20;24.87;;;8.10;99.90;;;;;;5074656;28;20210;-87
2022/03/26 08:13:43;;;;;;;40.07;24.20;;;8.30;99.90;;;;;;5059699;28;20183;-87
2022/03/26 08:16:09;;;;;;;42.10;24.07;;;8.50;99.90;;;;;;5076429;28;20266;-87
2022/03/26 08:18:36;;;;;;;36.27;23.80;;;8.50;99.90;;;;;;5059784;28;20184;-87
2022/03/26 08:21:02;;;;;;;38.43;23.57;;;8.60;99.90;;;;;;5059288;28;20188;-87
2022/03/26 08:23:28;;;;;;;40.83;24.67;;;8.70;99.90;;;;;;5075839;28;20181;-87
2022/03/26 08:28:39;;;;;;;35.77;24.30;;;9.10;99.90;;;;;;5075954;28;20183;-87
2022/03/26 08:31:06;;;;;;;39.00;24.03;;;9.20;99.90;;;;;;5059075;28;20180;-87
2022/03/26 08:33:32;;;;;;;38.20;23.30;;;9.40;99.90;;;;;;5059217;28;20303;-87
2022/03/26 08:35:58;;;;;;;38.00;23.93;;;9.50;99.90;;;;;;5059452;28;20183;-87
2022/03/26 08:38:24;;;;;;;37.87;24.17;;;9.60;99.90;;;;;;5059231;28;20321;-87
2022/03/26 08:40:49;;;;;;;35.07;23.03;;;9.70;99.90;;;;;;5109530;28;20185;-87
2022/03/26 08:43:15;;;;;;;37.00;24.37;;;9.80;99.90;;;;;;5109801;28;20296;-87
2022/03/26 08:45:41;;;;;;;39.43;24.57;;;10.10;99.80;;;;;;5093089;28;20208;-87
2022/03/26 08:48:08;;;;;;;37.67;24.00;;;10.20;99.30;;;;;;5095336;28;20173;-86
2022/03/26 08:50:37;;;;;;;38.83;24.50;;;10.30;99.60;;;;;;5095049;28;20199;-87
2022/03/26 08:53:04;;;;;;;36.10;24.03;;;10.50;99.40;;;;;;5092752;28;20205;-87
2022/03/26 08:55:30;;;;;;;37.30;24.30;;;10.60;99.80;;;;;;5092066;28;20184;-87
2022/03/26 08:57:57;;;;;;;38.27;25.07;;;10.70;99.90;;;;;;5092405;28;20188;-87
2022/03/26 09:00:26;;;;;;;37.87;24.57;;;10.90;99.50;;;;;;5091552;28;20179;-87
2022/03/26 09:02:53;;;;;;;36.67;25.00;;;11.00;99.10;;;;;;5092401;28;20291;-87
2022/03/26 09:05:19;;;;;;;36.40;24.40;;;11.30;99.50;;;;;;5091888;28;20216;-87
2022/03/26 09:07:45;;;;;;;36.33;25.37;;;11.30;98.40;;;;;;5109373;28;20283;-87
2022/03/26 09:10:11;;;;;;;37.37;24.27;;;11.50;99.00;;;;;;5074287;28;20188;-87
2022/03/26 09:12:38;;;;;;;37.77;25.00;;;11.70;99.40;;;;;;5058376;28;20304;-87
2022/03/26 09:15:07;;;;;;;39.43;25.13;;;11.80;97.70;;;;;;5056934;28;20234;-87
2022/03/26 09:17:34;;;;;;;41.37;25.33;;;11.90;98.00;;;;;;5073921;28;20706;-87
2022/03/26 09:20:00;;;;;;;35.17;23.50;;;12.10;98.30;;;;;;5058714;28;20185;-88
2022/03/26 09:22:26;;;;;;;36.77;24.30;;;12.40;97.80;;;;;;5058407;28;20222;-87
2022/03/26 09:24:52;;;;;;;37.07;24.23;;;12.60;97.10;;;;;;5076458;28;20362;-88
2022/03/26 09:27:18;;;;;;;36.97;25.30;;;12.80;97.00;;;;;;5061339;28;20179;-87
2022/03/26 09:29:45;;;;;;;38.13;25.80;;;13.00;96.70;;;;;;5059468;28;20214;-87
2022/03/26 09:32:11;;;;;;;38.13;25.70;;;13.20;96.40;;;;;;5060585;28;20241;-87
2022/03/26 09:34:37;;;;;;;39.30;25.47;;;13.30;96.60;;;;;;5060075;28;20283;-87
2022/03/26 09:37:04;;;;;;;35.43;25.60;;;13.40;95.50;;;;;;5059069;28;20323;-88
2022/03/26 09:39:31;;;;;;;36.80;25.17;;;13.60;96.10;;;;;;5091564;28;20176;-84
2022/03/26 09:41:58;;;;;;;35.83;23.83;;;13.80;96.10;;;;;;5090808;28;20208;-87
2022/03/26 09:44:24;;;;;;;36.37;25.00;;;14.00;95.30;;;;;;5054758;28;20233;-87
2022/03/26 09:46:52;;;;;;;37.90;24.53;;;14.20;95.20;;;;;;5074449;28;20173;-87
2022/03/26 09:49:18;;;;;;;37.47;24.93;;;14.30;94.70;;;;;;5057202;28;20175;-87
2022/03/26 09:51:44;;;;;;;37.47;25.03;;;14.50;93.90;;;;;;5057150;28;20193;-87
2022/03/26 09:54:13;;;;;;;39.37;25.73;;;14.70;93.70;;;;;;5074106;28;20177;-88
2022/03/26 09:56:39;;;;;;;42.80;26.50;;;14.70;92.30;;;;;;5057455;28;21236;-87
2022/03/26 09:59:05;;;;;;;36.33;25.53;;;14.70;94.30;;;;;;5071062;28;20253;-87
2022/03/26 10:01:31;;;;;;;39.43;25.53;;;14.90;94.30;;;;;;5074016;28;20200;-87
2022/03/26 10:04:12;;;;;;;44.00;26.60;;;15.10;94.80;;;;;;5057111;28;20204;-87
2022/03/26 10:06:49;;;;;;;40.10;25.80;;;15.30;92.90;;;;;;5056833;28;20180;-87
2022/03/26 10:09:47;;;;;;;40.70;25.70;;;15.20;91.60;;;;;;5088377;28;20177;-87
2022/03/26 10:12:19;;;;;;;38.83;25.47;;;15.20;92.40;;;;;;5039716;28;20257;-87
2022/03/26 10:14:48;;;;;;;40.87;25.93;;;15.50;93.60;;;;;;5057265;28;20181;-87
2022/03/26 10:17:15;;;;;;;36.97;25.67;;;15.70;93.50;;;;;;5054662;28;20189;-85
2022/03/26 10:19:50;;;;;;;36.00;25.87;;;15.90;91.80;;;;;;5073128;28;20230;-85
2022/03/26 10:22:38;;;;;;;39.33;25.23;;;16.10;92.00;;;;;;5059067;28;20212;-83
2022/03/26 10:25:30;;;;;;;36.50;25.07;;;16.40;90.70;;;;;;5065077;28;20192;-87
2022/03/26 10:27:57;;;;;;;34.80;24.33;;;16.50;87.30;;;;;;5085142;28;20184;-80
2022/03/26 10:33:20;;;;;;;36.00;24.10;;;16.80;84.50;;;;;;5081356;28;20204;-87
2022/03/26 10:35:57;;;;;;;40.25;25.42;;;16.90;85.20;;;;;;5059639;28;20535;-88
2022/03/26 10:38:31;;;;;;;37.60;25.33;;;17.00;84.40;;;;;;5059656;28;20195;-87
2022/03/26 10:41:03;;;;;;;37.67;25.77;;;17.20;85.00;;;;;;5118003;27;20176;-87
2022/03/26 10:43:31;;;;;;;41.73;26.20;;;17.30;83.90;;;;;;5089551;28;20633;-87
2022/03/26 10:46:01;;;;;;;36.88;25.67;;;17.40;82.90;;;;;;5076941;28;20180;-87
2022/03/26 10:48:36;;;;;;;38.17;25.23;;;17.50;82.80;;;;;;5081600;28;20180;-87
2022/03/26 10:51:15;;;;;;;40.55;25.55;;;17.70;85.20;;;;;;5063393;28;20172;-87
2022/03/26 10:53:54;;;;;;;37.25;24.83;;;17.80;82.80;;;;;;5075630;28;20187;-87
2022/03/26 10:56:22;;;;;;;39.95;24.77;;;17.90;82.70;;;;;;5074684;28;20172;-87
2022/03/26 10:58:49;;;;;;;41.67;26.00;;;18.10;82.60;;;;;;5058339;28;20192;-87
2022/03/26 11:01:15;;;;;;;39.42;26.15;;;18.10;82.40;;;;;;5058626;28;20184;-87
2022/03/26 11:03:41;;;;;;;41.45;27.10;;;18.10;80.60;;;;;;5058757;28;20176;-87
2022/03/26 11:06:09;;;;;;;40.05;27.88;;;18.10;80.10;;;;;;5058785;28;20172;-87
2022/03/26 11:08:36;;;;;;;40.17;26.17;;;18.10;81.20;;;;;;5058865;28;20237;-87
2022/03/26 11:11:08;;;;;;;39.45;26.83;;;18.20;82.90;;;;;;5058784;28;20520;-87
2022/03/26 11:13:43;;;;;;;40.50;25.60;;;18.40;81.30;;;;;;5058001;28;20279;-87
2022/03/26 11:16:34;;;;;;;38.33;25.95;;;18.50;82.50;;;;;;5056307;28;20172;-87
2022/03/26 11:19:26;;;;;;;36.20;25.08;;;18.50;80.00;;;;;;5045516;28;20271;-87
2022/03/26 11:22:01;;;;;;;35.88;25.08;;;18.60;79.70;;;;;;5077455;28;20195;-87
2022/03/26 11:24:50;;;;;;;36.67;26.20;;;18.70;80.00;;;;;;5057921;28;20192;-87
2022/03/26 11:27:32;;;;;;;38.92;26.42;;;18.80;77.70;;;;;;5056964;28;20180;-87
2022/03/26 11:30:22;;;;;;;36.60;25.05;;;18.80;78.00;;;;;;5062012;28;20172;-87
2022/03/26 11:33:15;;;;;;;36.33;24.83;;;18.80;77.80;;;;;;5059982;28;20200;-87
2022/03/26 11:35:57;;;;;;;37.42;26.83;;;18.90;77.20;;;;;;5063173;28;20202;-87
2022/03/26 11:38:27;;;;;;;37.17;25.10;;;19.00;78.10;;;;;;5075719;28;20235;-87
2022/03/26 11:41:02;;;;;;;44.05;26.85;;;19.10;77.50;;;;;;5092760;28;20172;-87
2022/03/26 11:43:44;;;;;;;39.17;26.30;;;19.00;76.60;;;;;;5091631;28;20735;-87
2022/03/26 11:51:58;;;;;;;35.83;25.42;;;19.30;75.80;;;;;;5075354;28;20238;-87
2022/03/26 11:54:24;;;;;;;35.75;25.77;;;19.50;74.90;;;;;;5090927;28;20180;-87
2022/03/26 11:57:09;;;;;;;37.15;26.00;;;19.60;74.50;;;;;;5091003;28;20177;-88
2022/03/26 11:59:40;;;;;;;39.53;26.02;;;19.70;72.70;;;;;;5090846;28;20172;-87
2022/03/26 12:02:34;;;;;;;37.35;25.00;;;19.60;72.50;;;;;;5091437;28;20204;-87
2022/03/26 12:06:36;;;;;;;37.28;25.60;;;19.60;72.10;;;;;;5049705;28;20208;-87
2022/03/26 12:08:08;;;;;;;34.53;24.45;;;19.50;73.00;;;;;;5074163;28;20195;-87
2022/03/26 12:10:34;;;;;;;37.75;24.00;;;19.60;73.00;;;;;;5108377;28;20287;-87
2022/03/26 12:13:02;;;;;;;31.08;23.50;;;19.90;73.40;;;;;;5091238;28;20279;-87
2022/03/26 12:15:33;;;;;;;32.90;24.02;;;20.00;71.40;;;;;;5091242;28;20172;-88
2022/03/26 12:18:08;;;;;;;35.85;24.63;;;20.10;68.70;;;;;;5091361;28;20208;-87
2022/03/26 12:20:40;;;;;;;33.03;23.73;;;20.00;72.10;;;;;;5091153;28;20179;-87
2022/03/26 12:23:19;;;;;;;33.47;24.48;;;20.20;72.10;;;;;;5091233;28;20270;-87
2022/03/26 12:25:51;;;;;;;171.38;153.07;;;20.20;67.60;;;;;;5091516;28;20216;-87
2022/03/26 12:28:32;;;;;;;29.08;23.30;;;19.80;71.00;;;;;;5091627;28;20176;-87
2022/03/26 12:31:04;;;;;;;35.92;25.08;;;20.00;71.30;;;;;;5091089;28;20257;-87
2022/03/26 12:34:09;;;;;;;31.63;23.23;;;20.10;71.10;;;;;;5091084;28;20193;-87
2022/03/26 12:36:35;;;;;;;37.65;24.92;;;20.30;69.10;;;;;;5091476;28;20196;-87
2022/03/26 12:39:03;;;;;;;32.42;23.70;;;20.10;68.30;;;;;;5090827;28;20238;-87
2022/03/26 12:41:31;;;;;;;31.35;22.63;;;20.10;70.20;;;;;;5091119;28;20688;-87
2022/03/26 12:44:03;;;;;;;31.10;22.40;;;20.40;70.30;;;;;;5089242;28;20216;-87
2022/03/26 12:46:35;;;;;;;34.28;23.98;;;20.60;69.00;;;;;;5073396;28;20185;-87
2022/03/26 12:49:20;;;;;;;32.08;22.17;;;20.60;65.40;;;;;;5087689;28;20248;-87
2022/03/26 12:51:52;;;;;;;32.13;24.30;;;20.70;69.90;;;;;;5071532;28;20285;-88
2022/03/26 12:54:19;;;;;;;31.23;23.00;;;20.50;68.60;;;;;;5070445;28;20188;-87
2022/03/26 12:56:49;;;;;;;32.00;23.27;;;20.60;68.30;;;;;;5072762;28;20177;-88